Time;durP1;ratioP1;P1;durP2;ratioP2;P2;SDS_P1;SDS_P2;PMS_P1;PMS_P2;Temp;Humidity;BMP_temperature;BMP_pressure;BME280_temperature;BME280_humidity;BME280_pressure;Samples;Min_cycle;Max_cycle;Signal;HPM_P1;HPM_P2
2022/07/12 00:07:48;;;;;;;6.33;2.68;;;;;;;16.03;100.00;100585.67;713808;1174;114292;-79
2022/07/12 00:22:51;;;;;;;3.27;1.73;;;;;;;15.79;100.00;100574.03;713769;1174;114708;-80
2022/07/12 00:37:54;;;;;;;2.45;1.88;;;;;;;15.61;100.00;100579.46;713739;1174;115596;-78
2022/07/12 00:52:56;;;;;;;2.38;1.80;;;;;;;15.43;100.00;100582.20;714085;1174;115932;-80
2022/07/12 01:08:00;;;;;;;7.10;2.70;;;;;;;15.44;100.00;100583.86;713744;1173;116049;-81
2022/07/12 01:23:03;;;;;;;4.25;2.95;;;;;;;15.35;100.00;100560.19;713821;1173;115747;-80
2022/07/12 01:38:06;;;;;;;7.75;3.00;;;;;;;15.20;100.00;100563.43;714277;1174;114353;-79
2022/07/12 01:53:08;;;;;;;3.10;2.50;;;;;;;15.07;100.00;100549.84;713826;1174;114684;-79
2022/07/12 02:08:11;;;;;;;5.20;2.40;;;;;;;15.00;100.00;100547.00;714137;1174;114958;-80
2022/07/12 02:23:14;;;;;;;3.58;1.88;;;;;;;14.77;100.00;100536.98;713870;1174;114381;-80
2022/07/12 02:38:16;;;;;;;6.30;2.63;;;;;;;14.70;100.00;100533.33;713634;1174;114893;-79
2022/07/12 02:53:18;;;;;;;6.07;2.90;;;;;;;14.63;100.00;100526.97;713795;1173;114863;-80
2022/07/12 03:08:20;;;;;;;4.25;2.68;;;;;;;14.69;100.00;100533.45;713890;1174;115570;-80
2022/07/12 03:23:23;;;;;;;14.57;4.87;;;;;;;14.97;100.00;100524.37;714434;1174;115009;-81
2022/07/12 03:38:25;;;;;;;6.80;3.60;;;;;;;15.20;100.00;100528.27;713846;1174;115198;-79
2022/07/12 03:53:27;;;;;;;8.67;3.37;;;;;;;15.45;100.00;100516.80;714178;1174;115786;-81
2022/07/12 04:08:29;;;;;;;5.65;3.38;;;;;;;15.75;100.00;100509.22;714086;1174;117175;-80
2022/07/12 04:23:32;;;;;;;6.25;3.40;;;;;;;15.83;100.00;100487.28;714189;1173;114277;-81
2022/07/12 04:38:34;;;;;;;6.68;3.10;;;;;;;16.22;100.00;100485.77;714694;1174;115523;-78
2022/07/12 04:53:36;;;;;;;11.17;3.30;;;;;;;16.81;100.00;100477.52;714179;1174;115771;-78
2022/07/12 05:08:39;;;;;;;5.23;3.27;;;;;;;16.80;100.00;100471.41;714532;1174;115929;-75
2022/07/12 05:23:41;;;;;;;6.20;3.23;;;;;;;17.18;100.00;100475.24;714490;1174;115540;-75
2022/07/12 05:38:44;;;;;;;6.10;2.83;;;;;;;17.57;100.00;100471.70;714291;1174;114681;-75
2022/07/12 05:53:46;;;;;;;7.83;2.98;;;;;;;17.80;100.00;100471.67;714033;1174;115462;-76
2022/07/12 06:08:49;;;;;;;2.65;2.25;;;;;;;18.10;100.00;100472.61;713948;1173;115719;-75
2022/07/12 06:23:53;;;;;;;4.63;1.88;;;;;;;18.89;100.00;100468.64;713881;1174;114764;-75
2022/07/12 06:38:55;;;;;;;2.68;1.43;;;;;;;19.39;100.00;100463.48;713878;1173;115554;-76
2022/07/12 06:53:57;;;;;;;2.73;1.40;;;;;;;19.79;100.00;100466.53;714025;1174;115265;-75
2022/07/12 07:09:00;;;;;;;2.80;1.15;;;;;;;20.07;100.00;100468.42;713903;1173;115607;-75
2022/07/12 07:24:03;;;;;;;2.25;1.20;;;;;;;20.38;100.00;100474.37;713914;1173;115015;-73
2022/07/12 07:39:06;;;;;;;2.48;1.13;;;;;;;21.15;99.07;100475.16;713850;1173;115556;-74
2022/07/12 07:54:08;;;;;;;10.85;2.45;;;;;;;21.90;94.63;100461.75;713827;1174;114275;-73
2022/07/12 08:09:11;;;;;;;0.80;0.80;;;;;;;21.70;89.57;100451.08;714157;1174;114824;-73
2022/07/12 08:24:15;;;;;;;3.08;0.98;;;;;;;21.65;87.16;100458.06;714046;1174;115672;-74
2022/07/12 08:39:17;;;;;;;1.10;0.60;;;;;;;22.60;86.05;100447.88;714025;1174;114853;-73
2022/07/12 08:54:19;;;;;;;4.03;1.18;;;;;;;22.98;82.42;100451.65;713749;1174;114285;-73
2022/07/12 09:09:30;;;;;;;5.43;2.20;;;;;;;23.72;80.39;100446.67;714029;1174;115128;-75
2022/07/12 09:24:32;;;;;;;1.40;0.80;;;;;;;23.52;75.44;100444.16;714040;1174;115514;-73
2022/07/12 09:39:35;;;;;;;2.67;0.77;;;;;;;23.85;73.29;100444.94;713708;1174;114210;-73
2022/07/12 09:54:40;;;;;;;0.90;0.70;;;;;;;24.55;71.52;100433.94;713606;1174;114929;-73
2022/07/12 10:09:46;;;;;;;2.10;1.30;;;;;;;24.60;70.10;100433.27;713918;1174;115886;-74
2022/07/12 10:24:52;;;;;;;1.00;0.65;;;;;;;24.80;67.34;100429.53;713695;1173;114069;-73
2022/07/12 10:40:13;;;;;;;2.40;0.70;;;;;;;25.24;62.90;100406.83;714249;1173;114176;-73
2022/07/12 10:55:17;;;;;;;3.10;0.47;;;;;;;25.55;62.36;100412.16;715030;1173;114871;-72
2022/07/12 11:10:20;;;;;;;4.18;1.65;;;;;;;25.50;62.11;100380.66;716056;1174;115740;-74
2022/07/12 11:25:23;;;;;;;2.98;1.78;;;;;;;25.78;61.46;100381.83;714260;1167;115320;-76
2022/07/12 11:40:27;;;;;;;2.10;0.90;;;;;;;25.05;63.09;100381.13;714447;1167;115738;-77
2022/07/12 11:55:31;;;;;;;2.65;1.08;;;;;;;24.74;62.23;100369.58;713994;1173;115121;-74
2022/07/12 12:10:34;;;;;;;1.20;0.80;;;;;;;25.17;61.87;100357.81;713980;1173;115073;-73
2022/07/12 12:25:38;;;;;;;1.23;0.70;;;;;;;25.12;62.13;100356.88;714001;1174;115427;-73
2022/07/12 12:40:50;;;;;;;1.90;1.00;;;;;;;25.41;62.26;100347.14;714303;1174;114157;-74
2022/07/12 12:55:55;;;;;;;0.95;0.78;;;;;;;25.04;62.78;100339.23;714391;1174;115590;-74
2022/07/12 13:26:20;;;;;;;1.80;1.05;;;;;;;26.02;59.18;100336.94;714170;1200;23131;-79
2022/07/12 13:41:23;;;;;;;1.50;0.90;;;;;;;26.54;56.51;100337.98;714464;1167;23274;-76
2022/07/12 13:56:26;;;;;;;2.85;1.83;;;;;;;27.21;53.72;100331.10;714409;1200;26184;-77
2022/07/12 14:11:36;;;;;;;1.20;0.70;;;;;;;27.09;53.59;100333.88;714476;1174;114360;-77
2022/07/12 14:26:39;;;;;;;1.80;1.05;;;;;;;26.44;54.64;100332.44;717075;1167;756039;-78
2022/07/12 14:41:42;;;;;;;1.73;0.80;;;;;;;26.30;54.89;100315.75;714534;1167;26275;-82
2022/07/12 14:56:44;;;;;;;2.90;1.33;;;;;;;25.80;55.17;100306.38;717960;1167;24564;-71
2022/07/12 15:11:55;;;;;;;3.50;0.70;;;;;;;26.55;54.04;100302.80;714625;1177;23742;-71
2022/07/12 15:26:58;;;;;;;2.30;0.93;;;;;;;26.32;51.88;100309.08;714526;1203;23123;-72
2022/07/12 15:42:01;;;;;;;3.40;1.80;;;;;;;25.33;53.91;100293.77;714193;1170;114674;-73
2022/07/12 15:57:05;;;;;;;2.00;1.30;;;;;;;26.32;51.89;100273.33;714099;1177;115050;-75
2022/07/12 16:12:07;;;;;;;4.00;1.50;;;;;;;26.27;50.63;100300.11;714462;1205;23785;-75
2022/07/12 16:27:09;;;;;;;3.45;1.30;;;;;;;26.43;50.91;100288.58;714261;1203;23151;-73
2022/07/12 16:42:12;;;;;;;4.13;1.23;;;;;;;26.23;48.91;100281.75;714494;1203;25968;-73
2022/07/12 16:57:14;;;;;;;4.87;1.03;;;;;;;25.70;50.14;100272.87;714803;1205;23149;-73
2022/07/12 17:12:17;;;;;;;2.63;0.90;;;;;;;25.06;50.94;100248.58;714416;1177;23189;-71
2022/07/12 17:27:19;;;;;;;2.95;0.80;;;;;;;24.88;50.23;100254.88;714046;1170;114005;-70
2022/07/12 17:42:23;;;;;;;3.43;1.00;;;;;;;24.60;51.08;100256.30;714437;1176;115367;-73
2022/07/12 17:57:26;;;;;;;1.53;0.70;;;;;;;24.41;52.81;100260.88;714372;1168;23144;-73
2022/07/12 18:27:54;;;;;;;3.18;1.10;;;;;;;23.89;55.67;100254.13;714447;1172;23937;-73
2022/07/12 18:42:57;;;;;;;4.08;2.70;;;;;;;23.66;56.72;100257.43;714212;1176;93379;-75
2022/07/12 18:58:00;;;;;;;5.67;2.30;;;;;;;23.19;58.50;100257.09;714833;1168;83785;-75
2022/07/12 19:13:03;;;;;;;7.38;3.98;;;;;;;23.02;58.75;100262.95;714214;1167;104211;-73
2022/07/12 19:28:06;;;;;;;3.93;1.43;;;;;;;22.74;59.79;100263.38;714225;1176;49622;-72
2022/07/12 19:43:10;;;;;;;3.85;2.30;;;;;;;22.40;61.21;100268.91;719973;1170;23237;-73
2022/07/12 19:58:13;;;;;;;3.27;1.37;;;;;;;22.18;62.45;100262.20;714140;1170;62693;-73
2022/07/12 20:13:17;;;;;;;8.70;4.70;;;;;;;22.03;62.71;100259.81;714071;1175;41812;-72
2022/07/12 20:28:20;;;;;;;2.65;1.45;;;;;;;21.77;64.12;100257.03;715746;1177;24776;-73
2022/07/12 20:43:22;;;;;;;2.90;1.60;;;;;;;21.53;64.84;100246.98;714713;1177;26242;-71
2022/07/12 20:58:26;;;;;;;2.65;1.00;;;;;;;21.34;66.39;100257.48;714761;1175;23336;-72
2022/07/12 21:13:29;;;;;;;6.08;1.40;;;;;;;20.99;67.39;100249.69;714235;1167;72666;-73
2022/07/12 21:28:32;;;;;;;5.70;2.30;;;;;;;20.65;69.51;100243.47;713951;1170;23138;-72
2022/07/12 21:43:35;;;;;;;1.83;1.30;;;;;;;20.27;70.94;100228.01;713914;1177;49560;-72
2022/07/12 21:58:39;;;;;;;2.18;1.20;;;;;;;19.16;76.09;100226.19;713747;1167;23128;-72
2022/07/12 22:13:41;;;;;;;5.35;1.95;;;;;;;18.86;79.06;100213.86;713890;1177;23136;-72
2022/07/12 22:28:44;;;;;;;2.47;1.60;;;;;;;18.58;81.83;100205.83;713870;1177;26271;-73
2022/07/12 22:43:51;;;;;;;3.38;1.90;;;;;;;18.27;85.39;100191.84;714276;1177;23134;-73
2022/07/12 22:58:54;;;;;;;3.73;2.00;;;;;;;18.13;88.58;100188.23;712559;1172;2352012;-72
2022/07/12 23:13:56;;;;;;;4.40;2.13;;;;;;;18.07;92.90;100180.20;714120;1167;79121;-72
2022/07/12 23:28:59;;;;;;;3.60;2.20;;;;;;;18.20;95.61;100169.72;714163;1177;23270;-73
2022/07/12 23:44:01;;;;;;;4.57;2.27;;;;;;;18.33;95.30;100181.48;714213;1177;28605;-72
2022/07/12 23:59:03;;;;;;;5.60;2.60;;;;;;;18.02;98.51;100162.16;714004;1182;26297;-72
